sensor_id;sensor_type;location;lat;lon;timestamp;temperature;humidity
3628;DHT22;1830;49.000;12.074;2023-02-28T00:00:25;-1.50;99.90
3628;DHT22;1830;49.000;12.074;2023-02-28T00:02:52;-1.40;99.90
3628;DHT22;1830;49.000;12.074;2023-02-28T00:05:21;-1.50;99.90
3628;DHT22;1830;49.000;12.074;2023-02-28T00:07:48;-1.50;99.90
3628;DHT22;1830;49.000;12.074;2023-02-28T00:10:17;-1.40;99.90
3628;DHT22;1830;49.000;12.074;2023-02-28T00:12:46;-1.40;99.90
3628;DHT22;1830;49.000;12.074;2023-02-28T00:15:14;-1.50;99.90
3628;DHT22;1830;49.000;12.074;2023-02-28T00:17:41;-1.60;99.90
3628;DHT22;1830;49.000;12.074;2023-02-28T00:20:09;-1.60;99.90
3628;DHT22;1830;49.000;12.074;2023-02-28T00:22:37;-1.70;99.90
3628;DHT22;1830;49.000;12.074;2023-02-28T00:25:05;-1.70;99.90
3628;DHT22;1830;49.000;12.074;2023-02-28T00:27:33;-1.70;99.90
3628;DHT22;1830;49.000;12.074;2023-02-28T00:30:04;-1.70;99.90
3628;DHT22;1830;49.000;12.074;2023-02-28T00:32:32;-1.70;99.90
3628;DHT22;1830;49.000;12.074;2023-02-28T00:34:59;-1.70;99.90
3628;DHT22;1830;49.000;12.074;2023-02-28T00:37:28;-1.70;99.90
3628;DHT22;1830;49.000;12.074;2023-02-28T00:39:54;-1.60;99.90
3628;DHT22;1830;49.000;12.074;2023-02-28T00:42:21;-1.60;99.90
3628;DHT22;1830;49.000;12.074;2023-02-28T00:44:48;-1.60;99.90
3628;DHT22;1830;49.000;12.074;2023-02-28T00:47:15;-1.60;99.90
3628;DHT22;1830;49.000;12.074;2023-02-28T00:49:43;-1.70;99.90
3628;DHT22;1830;49.000;12.074;2023-02-28T00:52:10;-1.70;99.90
3628;DHT22;1830;49.000;12.074;2023-02-28T00:54:37;-1.70;99.90
3628;DHT22;1830;49.000;12.074;2023-02-28T00:57:04;-1.70;99.90
3628;DHT22;1830;49.000;12.074;2023-02-28T00:59:30;-1.70;99.90
3628;DHT22;1830;49.000;12.074;2023-02-28T01:01:57;-1.70;99.90
3628;DHT22;1830;49.000;12.074;2023-02-28T01:04:24;-1.70;99.90
3628;DHT22;1830;49.000;12.074;2023-02-28T01:06:52;-1.70;99.90
3628;DHT22;1830;49.000;12.074;2023-02-28T01:09:19;-1.70;99.90
3628;DHT22;1830;49.000;12.074;2023-02-28T01:11:46;-1.80;99.90
3628;DHT22;1830;49.000;12.074;2023-02-28T01:14:13;-1.80;99.90
3628;DHT22;1830;49.000;12.074;2023-02-28T01:16:40;-1.80;99.90
3628;DHT22;1830;49.000;12.074;2023-02-28T01:19:09;-1.80;99.90
3628;DHT22;1830;49.000;12.074;2023-02-28T01:21:36;-1.80;99.90
3628;DHT22;1830;49.000;12.074;2023-02-28T01:24:05;-1.80;99.90
3628;DHT22;1830;49.000;12.074;2023-02-28T01:26:32;-1.80;99.90
3628;DHT22;1830;49.000;12.074;2023-02-28T01:29:05;-1.80;99.90
3628;DHT22;1830;49.000;12.074;2023-02-28T01:31:32;-1.90;99.90
3628;DHT22;1830;49.000;12.074;2023-02-28T01:33:59;-2.00;99.90
3628;DHT22;1830;49.000;12.074;2023-02-28T01:36:26;-2.00;99.90
3628;DHT22;1830;49.000;12.074;2023-02-28T01:38:53;-2.00;99.90
3628;DHT22;1830;49.000;12.074;2023-02-28T01:41:23;-2.00;99.90
3628;DHT22;1830;49.000;12.074;2023-02-28T01:43:59;-1.90;99.90
3628;DHT22;1830;49.000;12.074;2023-02-28T01:46:28;-2.00;99.90
3628;DHT22;1830;49.000;12.074;2023-02-28T01:49:00;-1.80;99.90
3628;DHT22;1830;49.000;12.074;2023-02-28T01:51:31;-2.00;99.90
3628;DHT22;1830;49.000;12.074;2023-02-28T01:54:02;-1.90;99.90
3628;DHT22;1830;49.000;12.074;2023-02-28T01:56:34;-2.00;99.90
3628;DHT22;1830;49.000;12.074;2023-02-28T01:59:02;-1.90;99.90
3628;DHT22;1830;49.000;12.074;2023-02-28T02:01:30;-1.90;99.90
3628;DHT22;1830;49.000;12.074;2023-02-28T02:03:59;-1.90;99.90
3628;DHT22;1830;49.000;12.074;2023-02-28T02:06:33;-1.90;99.90
3628;DHT22;1830;49.000;12.074;2023-02-28T02:09:00;-1.90;99.90
3628;DHT22;1830;49.000;12.074;2023-02-28T02:11:28;-1.90;99.90
3628;DHT22;1830;49.000;12.074;2023-02-28T02:16:58;-1.90;99.90
3628;DHT22;1830;49.000;12.074;2023-02-28T02:19:46;-1.90;99.90
3628;DHT22;1830;49.000;12.074;2023-02-28T02:22:39;-1.90;99.90
3628;DHT22;1830;49.000;12.074;2023-02-28T02:25:21;-2.00;99.90
3628;DHT22;1830;49.000;12.074;2023-02-28T02:28:16;-1.90;99.90
3628;DHT22;1830;49.000;12.074;2023-02-28T02:31:09;-1.90;99.90
3628;DHT22;1830;49.000;12.074;2023-02-28T02:36:39;-1.90;99.90
3628;DHT22;1830;49.000;12.074;2023-02-28T02:39:12;-2.00;99.90
3628;DHT22;1830;49.000;12.074;2023-02-28T02:41:44;-2.00;99.90
3628;DHT22;1830;49.000;12.074;2023-02-28T02:44:15;-2.10;99.90
3628;DHT22;1830;49.000;12.074;2023-02-28T02:46:46;-2.00;99.90
3628;DHT22;1830;49.000;12.074;2023-02-28T02:49:16;-2.20;99.90
3628;DHT22;1830;49.000;12.074;2023-02-28T02:51:48;-2.20;99.90
3628;DHT22;1830;49.000;12.074;2023-02-28T02:54:19;-2.20;99.90
3628;DHT22;1830;49.000;12.074;2023-02-28T02:56:48;-2.20;99.90
3628;DHT22;1830;49.000;12.074;2023-02-28T02:59:18;-2.10;99.90
3628;DHT22;1830;49.000;12.074;2023-02-28T03:01:48;-2.00;99.90
3628;DHT22;1830;49.000;12.074;2023-02-28T03:04:19;-2.10;99.90
3628;DHT22;1830;49.000;12.074;2023-02-28T03:06:47;-2.10;99.90
3628;DHT22;1830;49.000;12.074;2023-02-28T03:09:15;-2.00;99.90
3628;DHT22;1830;49.000;12.074;2023-02-28T03:11:42;-1.90;99.90
3628;DHT22;1830;49.000;12.074;2023-02-28T03:14:25;-1.90;99.90
3628;DHT22;1830;49.000;12.074;2023-02-28T03:17:20;-1.90;99.90
3628;DHT22;1830;49.000;12.074;2023-02-28T03:19:58;-2.00;99.90
3628;DHT22;1830;49.000;12.074;2023-02-28T03:22:41;-1.90;99.90
3628;DHT22;1830;49.000;12.074;2023-02-28T03:25:18;-1.90;99.90
3628;DHT22;1830;49.000;12.074;2023-02-28T03:27:53;-2.00;99.90
3628;DHT22;1830;49.000;12.074;2023-02-28T03:30:24;-2.00;99.90
3628;DHT22;1830;49.000;12.074;2023-02-28T03:32:56;-2.00;99.90
3628;DHT22;1830;49.000;12.074;2023-02-28T03:35:26;-2.00;99.90
3628;DHT22;1830;49.000;12.074;2023-02-28T03:38:03;-2.00;99.90
3628;DHT22;1830;49.000;12.074;2023-02-28T03:40:33;-2.00;99.90
3628;DHT22;1830;49.000;12.074;2023-02-28T03:43:06;-2.10;99.90
3628;DHT22;1830;49.000;12.074;2023-02-28T03:45:38;-1.90;99.90
3628;DHT22;1830;49.000;12.074;2023-02-28T03:48:11;-1.90;99.90
3628;DHT22;1830;49.000;12.074;2023-02-28T03:50:41;-1.90;99.90
3628;DHT22;1830;49.000;12.074;2023-02-28T03:53:12;-1.90;99.90
3628;DHT22;1830;49.000;12.074;2023-02-28T03:55:43;-1.90;99.90
3628;DHT22;1830;49.000;12.074;2023-02-28T03:58:15;-2.10;99.90
3628;DHT22;1830;49.000;12.074;2023-02-28T04:00:47;-2.00;99.90
3628;DHT22;1830;49.000;12.074;2023-02-28T04:03:14;-2.10;99.90
3628;DHT22;1830;49.000;12.074;2023-02-28T04:05:48;-2.00;99.90
3628;DHT22;1830;49.000;12.074;2023-02-28T04:08:16;-2.10;99.90
3628;DHT22;1830;49.000;12.074;2023-02-28T04:10:48;-2.10;99.90
3628;DHT22;1830;49.000;12.074;2023-02-28T04:13:16;-2.10;99.90
3628;DHT22;1830;49.000;12.074;2023-02-28T04:15:43;-2.10;99.90
3628;DHT22;1830;49.000;12.074;2023-02-28T04:18:10;-2.10;99.90
3628;DHT22;1830;49.000;12.074;2023-02-28T04:20:37;-2.10;99.90
3628;DHT22;1830;49.000;12.074;2023-02-28T04:23:04;-2.10;99.90
3628;DHT22;1830;49.000;12.074;2023-02-28T04:25:32;-2.10;99.90
3628;DHT22;1830;49.000;12.074;2023-02-28T04:27:59;-2.10;99.90
3628;DHT22;1830;49.000;12.074;2023-02-28T04:30:26;-2.10;99.90
3628;DHT22;1830;49.000;12.074;2023-02-28T04:32:53;-2.10;99.90
3628;DHT22;1830;49.000;12.074;2023-02-28T04:35:20;-2.10;99.90
3628;DHT22;1830;49.000;12.074;2023-02-28T04:37:47;-2.10;99.90
3628;DHT22;1830;49.000;12.074;2023-02-28T04:40:14;-2.20;99.90
3628;DHT22;1830;49.000;12.074;2023-02-28T04:42:42;-2.10;99.90
3628;DHT22;1830;49.000;12.074;2023-02-28T04:45:09;-2.00;99.90
3628;DHT22;1830;49.000;12.074;2023-02-28T04:47:36;-2.00;99.90
3628;DHT22;1830;49.000;12.074;2023-02-28T04:50:04;-2.10;99.90
3628;DHT22;1830;49.000;12.074;2023-02-28T04:52:31;-2.10;99.90
3628;DHT22;1830;49.000;12.074;2023-02-28T04:54:58;-2.10;99.90
3628;DHT22;1830;49.000;12.074;2023-02-28T04:57:25;-2.10;99.90
3628;DHT22;1830;49.000;12.074;2023-02-28T04:59:53;-2.10;99.90
3628;DHT22;1830;49.000;12.074;2023-02-28T05:02:20;-2.00;99.90
3628;DHT22;1830;49.000;12.074;2023-02-28T11:10:31;1.80;99.90
3628;DHT22;1830;49.000;12.074;2023-02-28T11:13:00;1.90;99.90
3628;DHT22;1830;49.000;12.074;2023-02-28T11:15:29;2.00;99.90
3628;DHT22;1830;49.000;12.074;2023-02-28T11:17:57;2.10;99.90
3628;DHT22;1830;49.000;12.074;2023-02-28T11:20:28;2.10;99.50
3628;DHT22;1830;49.000;12.074;2023-02-28T11:22:56;2.10;99.20
3628;DHT22;1830;49.000;12.074;2023-02-28T11:25:25;2.10;99.00
3628;DHT22;1830;49.000;12.074;2023-02-28T11:27:56;2.20;99.60
3628;DHT22;1830;49.000;12.074;2023-02-28T11:30:32;2.20;99.60
3628;DHT22;1830;49.000;12.074;2023-02-28T11:33:00;2.30;99.20
3628;DHT22;1830;49.000;12.074;2023-02-28T11:35:31;2.40;99.30
3628;DHT22;1830;49.000;12.074;2023-02-28T11:38:01;2.50;99.10
3628;DHT22;1830;49.000;12.074;2023-02-28T11:40:35;2.50;99.00
3628;DHT22;1830;49.000;12.074;2023-02-28T11:43:17;2.50;99.20
3628;DHT22;1830;49.000;12.074;2023-02-28T11:45:55;2.60;98.60
3628;DHT22;1830;49.000;12.074;2023-02-28T11:48:33;2.60;98.40
3628;DHT22;1830;49.000;12.074;2023-02-28T11:51:13;2.60;98.20
3628;DHT22;1830;49.000;12.074;2023-02-28T11:56:52;2.70;98.70
3628;DHT22;1830;49.000;12.074;2023-02-28T11:59:41;2.70;98.70
3628;DHT22;1830;49.000;12.074;2023-02-28T12:02:23;2.80;99.00
3628;DHT22;1830;49.000;12.074;2023-02-28T12:05:01;2.90;99.00
3628;DHT22;1830;49.000;12.074;2023-02-28T12:07:38;2.90;98.80
3628;DHT22;1830;49.000;12.074;2023-02-28T12:10:17;2.90;98.10
3628;DHT22;1830;49.000;12.074;2023-02-28T12:12:52;2.90;98.20
3628;DHT22;1830;49.000;12.074;2023-02-28T12:15:51;2.90;98.20
3628;DHT22;1830;49.000;12.074;2023-02-28T12:18:36;3.00;98.20
3628;DHT22;1830;49.000;12.074;2023-02-28T12:21:14;3.10;98.10
3628;DHT22;1830;49.000;12.074;2023-02-28T12:24:05;3.10;97.40
3628;DHT22;1830;49.000;12.074;2023-02-28T12:26:37;3.20;97.70
3628;DHT22;1830;49.000;12.074;2023-02-28T12:29:19;3.30;97.50
3628;DHT22;1830;49.000;12.074;2023-02-28T12:31:51;3.30;97.30
3628;DHT22;1830;49.000;12.074;2023-02-28T12:34:21;3.40;97.50
3628;DHT22;1830;49.000;12.074;2023-02-28T12:36:50;3.30;97.00
3628;DHT22;1830;49.000;12.074;2023-02-28T12:39:23;3.40;97.30
3628;DHT22;1830;49.000;12.074;2023-02-28T12:41:54;3.50;97.30
3628;DHT22;1830;49.000;12.074;2023-02-28T12:44:29;3.50;97.20
3628;DHT22;1830;49.000;12.074;2023-02-28T12:47:00;3.60;97.30
3628;DHT22;1830;49.000;12.074;2023-02-28T12:49:33;3.60;96.70
3628;DHT22;1830;49.000;12.074;2023-02-28T12:52:01;3.60;96.70
3628;DHT22;1830;49.000;12.074;2023-02-28T12:54:32;3.80;96.90
3628;DHT22;1830;49.000;12.074;2023-02-28T12:57:06;3.80;96.50
3628;DHT22;1830;49.000;12.074;2023-02-28T12:59:38;3.90;96.40
3628;DHT22;1830;49.000;12.074;2023-02-28T13:02:39;3.90;96.00
3628;DHT22;1830;49.000;12.074;2023-02-28T13:05:24;4.10;96.10
3628;DHT22;1830;49.000;12.074;2023-02-28T13:08:22;4.10;95.60
3628;DHT22;1830;49.000;12.074;2023-02-28T13:10:51;4.10;96.10
3628;DHT22;1830;49.000;12.074;2023-02-28T13:13:22;4.30;95.80
3628;DHT22;1830;49.000;12.074;2023-02-28T13:16:04;4.40;95.60
3628;DHT22;1830;49.000;12.074;2023-02-28T13:18:36;4.40;95.20
3628;DHT22;1830;49.000;12.074;2023-02-28T13:21:07;4.60;95.10
3628;DHT22;1830;49.000;12.074;2023-02-28T13:23:41;4.60;94.70
3628;DHT22;1830;49.000;12.074;2023-02-28T13:26:31;4.60;94.70
3628;DHT22;1830;49.000;12.074;2023-02-28T13:29:28;4.60;94.70
3628;DHT22;1830;49.000;12.074;2023-02-28T13:32:28;4.60;94.40
3628;DHT22;1830;49.000;12.074;2023-02-28T13:38:32;4.60;94.40
3628;DHT22;1830;49.000;12.074;2023-02-28T13:44:03;4.80;94.30
3628;DHT22;1830;49.000;12.074;2023-02-28T13:46:32;4.90;94.50
3628;DHT22;1830;49.000;12.074;2023-02-28T13:49:18;4.80;93.90
3628;DHT22;1830;49.000;12.074;2023-02-28T13:51:46;4.80;94.50
3628;DHT22;1830;49.000;12.074;2023-02-28T13:54:34;4.90;94.60
3628;DHT22;1830;49.000;12.074;2023-02-28T13:57:19;4.80;94.10
3628;DHT22;1830;49.000;12.074;2023-02-28T13:59:54;4.80;94.10
3628;DHT22;1830;49.000;12.074;2023-02-28T14:02:45;4.80;94.10
3628;DHT22;1830;49.000;12.074;2023-02-28T14:05:18;4.90;94.50
3628;DHT22;1830;49.000;12.074;2023-02-28T14:07:48;4.80;94.20
3628;DHT22;1830;49.000;12.074;2023-02-28T14:10:23;4.80;94.00
3628;DHT22;1830;49.000;12.074;2023-02-28T14:13:17;4.80;93.90
3628;DHT22;1830;49.000;12.074;2023-02-28T14:16:02;4.90;94.00
3628;DHT22;1830;49.000;12.074;2023-02-28T14:18:33;4.80;93.90
3628;DHT22;1830;49.000;12.074;2023-02-28T14:21:11;4.60;93.90
3628;DHT22;1830;49.000;12.074;2023-02-28T14:27:00;4.50;94.10
3628;DHT22;1830;49.000;12.074;2023-02-28T14:29:47;4.50;94.70
3628;DHT22;1830;49.000;12.074;2023-02-28T14:32:25;4.40;94.00
3628;DHT22;1830;49.000;12.074;2023-02-28T14:35:02;4.40;94.20
3628;DHT22;1830;49.000;12.074;2023-02-28T14:37:33;4.20;94.30
3628;DHT22;1830;49.000;12.074;2023-02-28T14:40:04;4.30;94.70
3628;DHT22;1830;49.000;12.074;2023-02-28T14:42:33;4.30;94.60
3628;DHT22;1830;49.000;12.074;2023-02-28T14:45:00;4.20;94.70
3628;DHT22;1830;49.000;12.074;2023-02-28T14:47:30;4.10;95.20
3628;DHT22;1830;49.000;12.074;2023-02-28T14:50:00;4.10;94.90
3628;DHT22;1830;49.000;12.074;2023-02-28T14:52:31;4.00;95.10
3628;DHT22;1830;49.000;12.074;2023-02-28T14:55:00;4.00;95.20
3628;DHT22;1830;49.000;12.074;2023-02-28T14:57:28;3.90;95.00
3628;DHT22;1830;49.000;12.074;2023-02-28T15:00:00;3.90;95.00
3628;DHT22;1830;49.000;12.074;2023-02-28T15:02:33;3.90;95.10
3628;DHT22;1830;49.000;12.074;2023-02-28T15:05:16;3.80;95.40
3628;DHT22;1830;49.000;12.074;2023-02-28T15:07:46;3.80;95.60
3628;DHT22;1830;49.000;12.074;2023-02-28T15:10:18;3.90;95.70
3628;DHT22;1830;49.000;12.074;2023-02-28T15:12:51;3.90;95.10
3628;DHT22;1830;49.000;12.074;2023-02-28T15:15:19;3.80;95.10
3628;DHT22;1830;49.000;12.074;2023-02-28T15:17:50;3.80;95.30
3628;DHT22;1830;49.000;12.074;2023-02-28T15:20:20;3.80;95.30
3628;DHT22;1830;49.000;12.074;2023-02-28T15:22:50;3.70;95.30
3628;DHT22;1830;49.000;12.074;2023-02-28T15:25:20;3.50;95.40
3628;DHT22;1830;49.000;12.074;2023-02-28T15:27:49;3.50;95.40
3628;DHT22;1830;49.000;12.074;2023-02-28T15:30:19;3.50;95.80
3628;DHT22;1830;49.000;12.074;2023-02-28T15:33:15;3.40;95.60
3628;DHT22;1830;49.000;12.074;2023-02-28T15:35:46;3.50;95.90
3628;DHT22;1830;49.000;12.074;2023-02-28T15:38:17;3.40;95.70
3628;DHT22;1830;49.000;12.074;2023-02-28T15:40:49;3.30;95.80
3628;DHT22;1830;49.000;12.074;2023-02-28T15:43:23;3.30;95.90
3628;DHT22;1830;49.000;12.074;2023-02-28T15:45:51;3.30;95.90
3628;DHT22;1830;49.000;12.074;2023-02-28T15:48:22;3.30;96.20
3628;DHT22;1830;49.000;12.074;2023-02-28T15:50:53;3.10;96.30
3628;DHT22;1830;49.000;12.074;2023-02-28T15:53:23;3.10;96.50
3628;DHT22;1830;49.000;12.074;2023-02-28T15:55:57;3.00;96.30
3628;DHT22;1830;49.000;12.074;2023-02-28T15:58:25;3.00;96.30
3628;DHT22;1830;49.000;12.074;2023-02-28T16:01:08;2.90;96.50
3628;DHT22;1830;49.000;12.074;2023-02-28T16:03:44;3.00;96.70
3628;DHT22;1830;49.000;12.074;2023-02-28T16:06:39;3.00;96.70
3628;DHT22;1830;49.000;12.074;2023-02-28T16:09:10;2.90;96.90
3628;DHT22;1830;49.000;12.074;2023-02-28T16:11:43;2.80;97.30
3628;DHT22;1830;49.000;12.074;2023-02-28T16:14:17;2.80;97.20
3628;DHT22;1830;49.000;12.074;2023-02-28T16:16:45;2.80;97.30
3628;DHT22;1830;49.000;12.074;2023-02-28T16:19:13;2.90;97.50
3628;DHT22;1830;49.000;12.074;2023-02-28T16:21:41;2.80;97.70
3628;DHT22;1830;49.000;12.074;2023-02-28T16:24:08;2.70;97.60
3628;DHT22;1830;49.000;12.074;2023-02-28T16:26:35;2.70;97.70
3628;DHT22;1830;49.000;12.074;2023-02-28T16:29:03;2.60;97.80
3628;DHT22;1830;49.000;12.074;2023-02-28T16:31:32;2.60;97.90
3628;DHT22;1830;49.000;12.074;2023-02-28T16:34:01;2.90;99.50
3628;DHT22;1830;49.000;12.074;2023-02-28T16:36:29;2.70;98.40
3628;DHT22;1830;49.000;12.074;2023-02-28T16:38:57;2.60;98.40
3628;DHT22;1830;49.000;12.074;2023-02-28T16:41:26;2.60;98.40
3628;DHT22;1830;49.000;12.074;2023-02-28T16:43:55;2.50;98.40
3628;DHT22;1830;49.000;12.074;2023-02-28T16:46:27;2.40;98.60
3628;DHT22;1830;49.000;12.074;2023-02-28T16:48:54;2.40;98.80
3628;DHT22;1830;49.000;12.074;2023-02-28T16:51:21;2.30;98.90
3628;DHT22;1830;49.000;12.074;2023-02-28T16:53:47;2.30;98.90
3628;DHT22;1830;49.000;12.074;2023-02-28T16:56:17;2.30;99.00
3628;DHT22;1830;49.000;12.074;2023-02-28T16:58:45;2.40;99.00
3628;DHT22;1830;49.000;12.074;2023-02-28T17:01:13;2.30;98.70
3628;DHT22;1830;49.000;12.074;2023-02-28T17:03:40;2.40;98.90
3628;DHT22;1830;49.000;12.074;2023-02-28T17:06:17;2.30;99.10
3628;DHT22;1830;49.000;12.074;2023-02-28T17:08:44;2.30;99.20
3628;DHT22;1830;49.000;12.074;2023-02-28T17:11:11;2.30;99.40
3628;DHT22;1830;49.000;12.074;2023-02-28T17:13:39;2.20;99.40
3628;DHT22;1830;49.000;12.074;2023-02-28T17:16:07;2.20;99.60
3628;DHT22;1830;49.000;12.074;2023-02-28T17:18:35;2.10;99.60
3628;DHT22;1830;49.000;12.074;2023-02-28T17:21:09;2.10;99.80
3628;DHT22;1830;49.000;12.074;2023-02-28T17:23:39;2.20;99.90
3628;DHT22;1830;49.000;12.074;2023-02-28T17:26:05;2.20;99.90
3628;DHT22;1830;49.000;12.074;2023-02-28T17:28:32;2.30;99.90
3628;DHT22;1830;49.000;12.074;2023-02-28T17:31:00;2.30;99.90
3628;DHT22;1830;49.000;12.074;2023-02-28T17:33:27;2.20;99.90
3628;DHT22;1830;49.000;12.074;2023-02-28T17:35:54;2.20;99.90
3628;DHT22;1830;49.000;12.074;2023-02-28T17:38:21;2.10;99.90
3628;DHT22;1830;49.000;12.074;2023-02-28T17:40:48;2.20;99.90
3628;DHT22;1830;49.000;12.074;2023-02-28T17:43:17;2.20;99.90
3628;DHT22;1830;49.000;12.074;2023-02-28T17:45:44;2.20;99.90
3628;DHT22;1830;49.000;12.074;2023-02-28T17:48:12;2.20;99.90
3628;DHT22;1830;49.000;12.074;2023-02-28T17:50:40;2.30;99.90
3628;DHT22;1830;49.000;12.074;2023-02-28T17:53:07;2.20;99.90
3628;DHT22;1830;49.000;12.074;2023-02-28T17:55:34;2.30;99.90
3628;DHT22;1830;49.000;12.074;2023-02-28T17:58:02;2.30;99.90
3628;DHT22;1830;49.000;12.074;2023-02-28T18:00:32;2.30;99.90
3628;DHT22;1830;49.000;12.074;2023-02-28T18:02:59;2.30;99.90
3628;DHT22;1830;49.000;12.074;2023-02-28T18:05:28;2.30;99.90
3628;DHT22;1830;49.000;12.074;2023-02-28T18:07:55;2.10;99.90
3628;DHT22;1830;49.000;12.074;2023-02-28T18:10:23;2.10;99.90
3628;DHT22;1830;49.000;12.074;2023-02-28T18:12:51;2.10;99.90
3628;DHT22;1830;49.000;12.074;2023-02-28T18:15:20;2.20;99.90
3628;DHT22;1830;49.000;12.074;2023-02-28T18:17:47;2.10;99.90
3628;DHT22;1830;49.000;12.074;2023-02-28T18:20:16;2.00;99.90
3628;DHT22;1830;49.000;12.074;2023-02-28T18:22:44;2.00;99.90
3628;DHT22;1830;49.000;12.074;2023-02-28T18:25:12;2.10;99.90
3628;DHT22;1830;49.000;12.074;2023-02-28T18:27:41;2.00;99.90
3628;DHT22;1830;49.000;12.074;2023-02-28T18:30:19;1.90;99.90
3628;DHT22;1830;49.000;12.074;2023-02-28T18:32:46;1.90;99.90
3628;DHT22;1830;49.000;12.074;2023-02-28T18:35:13;2.00;99.90
3628;DHT22;1830;49.000;12.074;2023-02-28T18:37:40;1.90;99.90
3628;DHT22;1830;49.000;12.074;2023-02-28T18:40:10;1.90;99.90
3628;DHT22;1830;49.000;12.074;2023-02-28T18:42:37;1.90;99.90
3628;DHT22;1830;49.000;12.074;2023-02-28T18:45:04;1.90;99.90
3628;DHT22;1830;49.000;12.074;2023-02-28T18:47:33;1.90;99.90
3628;DHT22;1830;49.000;12.074;2023-02-28T18:50:00;2.00;99.90
3628;DHT22;1830;49.000;12.074;2023-02-28T18:52:27;1.90;99.90
3628;DHT22;1830;49.000;12.074;2023-02-28T18:54:54;1.80;99.90
3628;DHT22;1830;49.000;12.074;2023-02-28T18:57:22;1.80;99.90
3628;DHT22;1830;49.000;12.074;2023-02-28T18:59:49;1.80;99.90
3628;DHT22;1830;49.000;12.074;2023-02-28T19:02:16;1.80;99.90
3628;DHT22;1830;49.000;12.074;2023-02-28T19:04:43;1.80;99.90
3628;DHT22;1830;49.000;12.074;2023-02-28T19:07:09;1.70;99.90
3628;DHT22;1830;49.000;12.074;2023-02-28T19:09:36;1.70;99.90
3628;DHT22;1830;49.000;12.074;2023-02-28T19:12:03;1.70;99.90
3628;DHT22;1830;49.000;12.074;2023-02-28T19:14:31;1.70;99.90
3628;DHT22;1830;49.000;12.074;2023-02-28T19:16:58;1.70;99.90
3628;DHT22;1830;49.000;12.074;2023-02-28T19:19:25;1.70;99.90
3628;DHT22;1830;49.000;12.074;2023-02-28T19:21:52;1.60;99.90
3628;DHT22;1830;49.000;12.074;2023-02-28T19:24:20;1.70;99.90
3628;DHT22;1830;49.000;12.074;2023-02-28T19:26:46;1.60;99.90
3628;DHT22;1830;49.000;12.074;2023-02-28T19:29:13;1.50;99.90
3628;DHT22;1830;49.000;12.074;2023-02-28T19:31:41;1.50;99.90
3628;DHT22;1830;49.000;12.074;2023-02-28T19:34:08;1.50;99.90
3628;DHT22;1830;49.000;12.074;2023-02-28T19:36:35;1.50;99.90
3628;DHT22;1830;49.000;12.074;2023-02-28T19:39:02;1.60;99.90
3628;DHT22;1830;49.000;12.074;2023-02-28T19:41:29;1.60;99.90
3628;DHT22;1830;49.000;12.074;2023-02-28T19:43:56;1.50;99.90
3628;DHT22;1830;49.000;12.074;2023-02-28T19:46:23;1.40;99.90
3628;DHT22;1830;49.000;12.074;2023-02-28T19:48:53;1.40;99.90
3628;DHT22;1830;49.000;12.074;2023-02-28T19:51:20;1.40;99.90
3628;DHT22;1830;49.000;12.074;2023-02-28T19:53:47;1.40;99.90
3628;DHT22;1830;49.000;12.074;2023-02-28T19:56:14;1.40;99.90
3628;DHT22;1830;49.000;12.074;2023-02-28T19:58:41;1.30;99.90
3628;DHT22;1830;49.000;12.074;2023-02-28T20:01:09;1.30;99.90
3628;DHT22;1830;49.000;12.074;2023-02-28T20:03:36;1.40;99.90
3628;DHT22;1830;49.000;12.074;2023-02-28T20:06:06;1.30;99.90
3628;DHT22;1830;49.000;12.074;2023-02-28T20:08:34;1.30;99.90
3628;DHT22;1830;49.000;12.074;2023-02-28T20:11:02;1.30;99.90
3628;DHT22;1830;49.000;12.074;2023-02-28T20:13:29;1.20;99.90
3628;DHT22;1830;49.000;12.074;2023-02-28T20:15:58;1.20;99.90
3628;DHT22;1830;49.000;12.074;2023-02-28T20:18:25;1.10;99.90
3628;DHT22;1830;49.000;12.074;2023-02-28T20:20:52;1.00;99.90
3628;DHT22;1830;49.000;12.074;2023-02-28T20:23:20;1.00;99.90
3628;DHT22;1830;49.000;12.074;2023-02-28T20:25:47;1.00;99.90
3628;DHT22;1830;49.000;12.074;2023-02-28T20:28:16;1.00;99.90
3628;DHT22;1830;49.000;12.074;2023-02-28T20:30:42;0.90;99.90
3628;DHT22;1830;49.000;12.074;2023-02-28T20:33:13;0.90;99.90
3628;DHT22;1830;49.000;12.074;2023-02-28T20:35:39;0.80;99.90
3628;DHT22;1830;49.000;12.074;2023-02-28T20:38:06;0.70;99.90
3628;DHT22;1830;49.000;12.074;2023-02-28T20:40:34;0.70;99.90
3628;DHT22;1830;49.000;12.074;2023-02-28T20:43:01;0.70;99.90
3628;DHT22;1830;49.000;12.074;2023-02-28T20:45:28;0.60;99.90
3628;DHT22;1830;49.000;12.074;2023-02-28T20:48:00;0.60;99.90
3628;DHT22;1830;49.000;12.074;2023-02-28T20:50:27;0.70;99.90
3628;DHT22;1830;49.000;12.074;2023-02-28T20:52:54;0.70;99.90
3628;DHT22;1830;49.000;12.074;2023-02-28T20:55:21;0.70;99.90
3628;DHT22;1830;49.000;12.074;2023-02-28T20:57:49;0.60;99.90
3628;DHT22;1830;49.000;12.074;2023-02-28T21:00:16;0.60;99.90
3628;DHT22;1830;49.000;12.074;2023-02-28T21:02:45;0.50;99.90
3628;DHT22;1830;49.000;12.074;2023-02-28T21:05:11;0.50;99.90
3628;DHT22;1830;49.000;12.074;2023-02-28T21:07:38;0.60;99.90
3628;DHT22;1830;49.000;12.074;2023-02-28T21:10:06;0.60;99.90
3628;DHT22;1830;49.000;12.074;2023-02-28T21:12:33;0.40;99.90
3628;DHT22;1830;49.000;12.074;2023-02-28T21:15:02;0.50;99.90
3628;DHT22;1830;49.000;12.074;2023-02-28T21:17:29;0.60;99.90
3628;DHT22;1830;49.000;12.074;2023-02-28T21:19:55;0.60;99.90
3628;DHT22;1830;49.000;12.074;2023-02-28T21:22:22;0.60;99.90
3628;DHT22;1830;49.000;12.074;2023-02-28T21:24:49;0.60;99.90
3628;DHT22;1830;49.000;12.074;2023-02-28T21:27:16;0.60;99.90
3628;DHT22;1830;49.000;12.074;2023-02-28T21:29:42;0.60;99.90
3628;DHT22;1830;49.000;12.074;2023-02-28T21:32:10;0.70;99.90
3628;DHT22;1830;49.000;12.074;2023-02-28T21:34:39;0.80;99.90
3628;DHT22;1830;49.000;12.074;2023-02-28T21:37:06;0.80;99.90
3628;DHT22;1830;49.000;12.074;2023-02-28T21:39:33;0.80;99.90
3628;DHT22;1830;49.000;12.074;2023-02-28T21:42:00;0.80;99.90
3628;DHT22;1830;49.000;12.074;2023-02-28T21:44:29;0.80;99.90
3628;DHT22;1830;49.000;12.074;2023-02-28T21:46:56;0.90;99.90
3628;DHT22;1830;49.000;12.074;2023-02-28T21:49:27;0.90;99.90
3628;DHT22;1830;49.000;12.074;2023-02-28T21:51:54;0.90;99.90
3628;DHT22;1830;49.000;12.074;2023-02-28T21:54:22;0.90;99.90
3628;DHT22;1830;49.000;12.074;2023-02-28T21:56:49;0.90;99.90
3628;DHT22;1830;49.000;12.074;2023-02-28T21:59:16;0.80;99.90
3628;DHT22;1830;49.000;12.074;2023-02-28T22:01:43;0.90;99.90
3628;DHT22;1830;49.000;12.074;2023-02-28T22:04:12;0.90;99.90
3628;DHT22;1830;49.000;12.074;2023-02-28T22:06:48;0.90;99.90
3628;DHT22;1830;49.000;12.074;2023-02-28T22:09:15;0.90;99.90
3628;DHT22;1830;49.000;12.074;2023-02-28T22:11:41;0.90;99.90
3628;DHT22;1830;49.000;12.074;2023-02-28T22:14:08;0.90;99.90
3628;DHT22;1830;49.000;12.074;2023-02-28T22:16:36;1.00;99.90
3628;DHT22;1830;49.000;12.074;2023-02-28T22:19:04;1.00;99.90
3628;DHT22;1830;49.000;12.074;2023-02-28T22:21:32;1.00;99.90
3628;DHT22;1830;49.000;12.074;2023-02-28T22:24:01;1.00;99.90
3628;DHT22;1830;49.000;12.074;2023-02-28T22:26:27;1.00;99.90
3628;DHT22;1830;49.000;12.074;2023-02-28T22:28:54;0.90;99.90
3628;DHT22;1830;49.000;12.074;2023-02-28T22:31:22;0.90;99.90
3628;DHT22;1830;49.000;12.074;2023-02-28T22:33:52;1.00;99.90
3628;DHT22;1830;49.000;12.074;2023-02-28T22:36:20;0.90;99.90
3628;DHT22;1830;49.000;12.074;2023-02-28T22:38:48;0.90;99.90
3628;DHT22;1830;49.000;12.074;2023-02-28T22:41:17;1.00;99.90
3628;DHT22;1830;49.000;12.074;2023-02-28T22:43:48;1.00;99.90